Kirkby-in-Ashfield, United Kingdom
Current Conditions -  °F | °C
As of 2:50 PM on Monday 24 Nov 2014 (Local Time) from EGNX Reporting Station
Clear Clear  
Wind Chill:   Ceiling: Unl
Heat Index:   Visibility: 6mi
Dew Point:   Wind: 5mph
Humidity: 81%   Direction: 270°W
Pressure: 30.33"   Gusts: NA
Location:  53.1°N, 1.26°W
Report Text: EGNX 241450Z 27004KT CAVOK 07/04 Q1027
Loading
Personal Weather Stations






























Interactive Weather Map New forecast layout! Learn more

10-Day Weather Forecast

Advertisements
Track Severe Weather on mobile